Time;durP1;ratioP1;P1;durP2;ratioP2;P2;SDS_P1;SDS_P2;PMS_P1;PMS_P2;Temp;Humidity;BMP_temperature;BMP_pressure;BME280_temperature;BME280_humidity;BME280_pressure;Samples;Min_cycle;Max_cycle;Signal;HPM_P1;HPM_P2
2023/10/27 00:00:38;;;;;;;;;;;16.60;99.90;;;;;;5108399;28;19912;-76
2023/10/27 00:03:05;;;;;;;;;;;16.70;99.90;;;;;;5080992;28;20018;-73
2023/10/27 00:05:32;;;;;;;;;;;16.70;99.90;;;;;;5104819;28;20357;-72
2023/10/27 00:07:59;;;;;;;;;;;16.80;99.90;;;;;;5111847;28;20006;-74
2023/10/27 00:10:25;;;;;;;;;;;16.80;99.90;;;;;;5112838;28;20360;-75
2023/10/27 00:12:52;;;;;;;;;;;17.00;99.90;;;;;;5093616;28;19916;-75
2023/10/27 00:15:19;;;;;;;;;;;17.00;99.90;;;;;;5104795;28;19907;-79
2023/10/27 00:17:46;;;;;;;;;;;17.00;99.90;;;;;;5113043;28;19914;-75
2023/10/27 00:20:13;;;;;;;;;;;17.10;99.90;;;;;;5112407;28;19912;-74
2023/10/27 00:22:39;;;;;;;;;;;17.20;99.90;;;;;;5101883;28;20066;-78
2023/10/27 00:25:06;;;;;;;;;;;17.20;99.90;;;;;;5110586;28;19941;-75
2023/10/27 00:27:33;;;;;;;;;;;17.20;99.90;;;;;;5112954;28;19931;-76
2023/10/27 00:29:59;;;;;;;;;;;17.20;99.90;;;;;;5112402;28;19984;-73
2023/10/27 00:32:26;;;;;;;;;;;17.20;99.90;;;;;;5111456;28;19908;-72
2023/10/27 00:34:53;;;;;;;;;;;17.30;99.90;;;;;;5095731;28;20284;-73
2023/10/27 00:37:19;;;;;;;;;;;17.30;99.90;;;;;;5091667;28;19923;-74
2023/10/27 00:39:46;;;;;;;;;;;17.50;99.90;;;;;;5092265;28;20268;-74
2023/10/27 00:42:13;;;;;;;;;;;17.60;99.90;;;;;;5111691;28;19919;-73
2023/10/27 00:44:39;;;;;;;;;;;17.80;99.90;;;;;;5106750;28;19921;-72
2023/10/27 00:47:06;;;;;;;;;;;18.00;99.90;;;;;;5099639;28;19983;-74
2023/10/27 00:49:33;;;;;;;;;;;18.20;99.90;;;;;;5107077;28;19920;-74
2023/10/27 00:52:00;;;;;;;;;;;18.30;99.90;;;;;;5101495;28;19915;-77
2023/10/27 00:54:27;;;;;;;;;;;18.40;99.90;;;;;;5111605;28;19916;-76
2023/10/27 00:56:55;;;;;;;;;;;18.60;99.90;;;;;;5112169;28;19950;-74
2023/10/27 00:59:21;;;;;;;;;;;18.80;99.90;;;;;;5107352;28;19925;-76
2023/10/27 01:01:48;;;;;;;;;;;19.10;99.90;;;;;;5109448;28;19912;-74
2023/10/27 01:04:15;;;;;;;;;;;19.00;99.90;;;;;;5105882;28;20275;-74
2023/10/27 01:06:41;;;;;;;;;;;18.90;99.90;;;;;;5108080;28;20369;-73
2023/10/27 01:09:08;;;;;;;;;;;19.00;99.90;;;;;;5111487;28;20364;-78
2023/10/27 01:11:35;;;;;;;;;;;19.20;99.90;;;;;;5112132;28;20360;-74
2023/10/27 01:14:02;;;;;;;;;;;19.50;99.90;;;;;;5111274;28;20275;-76
2023/10/27 01:16:28;;;;;;;;;;;19.70;99.90;;;;;;5103918;28;19912;-78
2023/10/27 01:18:55;;;;;;;;;;;19.80;99.90;;;;;;5103654;28;19915;-75
2023/10/27 01:21:22;;;;;;;;;;;20.10;99.90;;;;;;5114288;28;19908;-73
2023/10/27 01:23:48;;;;;;;;;;;20.40;99.90;;;;;;5107790;28;19926;-75
2023/10/27 01:26:15;;;;;;;;;;;20.30;99.90;;;;;;5114895;28;20372;-77
2023/10/27 01:28:42;;;;;;;;;;;20.40;99.90;;;;;;5112481;28;19915;-75
2023/10/27 01:31:08;;;;;;;;;;;20.50;99.90;;;;;;5112592;28;19908;-73
2023/10/27 01:33:35;;;;;;;;;;;20.60;99.90;;;;;;5109157;28;19912;-74
2023/10/27 01:36:02;;;;;;;;;;;20.50;99.90;;;;;;5112975;28;19911;-73
2023/10/27 01:38:28;;;;;;;;;;;20.00;99.90;;;;;;5104719;28;20441;-76
2023/10/27 01:40:55;;;;;;;;;;;19.20;99.90;;;;;;5109402;28;19919;-77
2023/10/27 01:43:22;;;;;;;;;;;18.60;99.90;;;;;;5103906;28;19995;-77
2023/10/27 01:45:48;;;;;;;;;;;18.30;99.90;;;;;;5106794;28;20345;-76
2023/10/27 01:48:15;;;;;;;;;;;18.20;99.90;;;;;;5105259;28;19928;-70
2023/10/27 01:50:41;;;;;;;;;;;18.40;99.90;;;;;;5112063;28;19912;-72
2023/10/27 01:53:08;;;;;;;;;;;18.90;99.90;;;;;;5093739;28;19912;-70
2023/10/27 01:55:35;;;;;;;;;;;19.20;99.90;;;;;;5102773;28;19911;-69
2023/10/27 01:58:02;;;;;;;;;;;19.50;99.90;;;;;;5103076;28;19912;-69
2023/10/27 02:00:29;;;;;;;;;;;19.40;99.90;;;;;;5107956;28;20341;-70
2023/10/27 02:02:55;;;;;;;;;;;19.80;99.90;;;;;;5103576;28;20045;-70
2023/10/27 02:05:22;;;;;;;;;;;20.40;99.90;;;;;;5108964;28;19918;-70
2023/10/27 02:07:48;;;;;;;;;;;20.50;99.90;;;;;;5103673;28;19912;-69
2023/10/27 02:10:15;;;;;;;;;;;20.50;99.90;;;;;;5093672;28;19970;-72
2023/10/27 02:12:42;;;;;;;;;;;20.50;99.90;;;;;;5114554;28;19939;-70
2023/10/27 02:15:09;;;;;;;;;;;20.10;99.50;;;;;;5096829;28;19971;-69
2023/10/27 02:17:37;;;;;;;;;;;19.90;99.90;;;;;;5113253;28;19958;-71
2023/10/27 02:20:04;;;;;;;;;;;20.10;99.90;;;;;;5113282;28;20419;-71
2023/10/27 02:22:31;;;;;;;;;;;20.50;98.40;;;;;;5113658;28;19915;-69
2023/10/27 02:24:58;;;;;;;;;;;21.00;97.00;;;;;;5096427;28;19908;-69
2023/10/27 02:27:24;;;;;;;;;;;21.40;97.60;;;;;;5097924;27;19938;-73
2023/10/27 02:29:51;;;;;;;;;;;21.80;95.90;;;;;;5114554;27;19959;-73
2023/10/27 02:32:18;;;;;;;;;;;21.60;96.80;;;;;;5108047;28;19908;-72
2023/10/27 02:34:45;;;;;;;;;;;21.50;96.50;;;;;;5108222;28;19916;-73
2023/10/27 02:37:12;;;;;;;;;;;21.30;96.10;;;;;;5111652;28;19918;-71
2023/10/27 02:39:39;;;;;;;;;;;21.00;96.10;;;;;;5110852;28;19916;-73
2023/10/27 02:42:06;;;;;;;;;;;20.80;95.60;;;;;;5077876;28;19998;-73
2023/10/27 02:44:33;;;;;;;;;;;20.60;95.20;;;;;;5111076;28;20253;-72
2023/10/27 02:46:59;;;;;;;;;;;20.30;95.00;;;;;;5109459;28;19943;-73
2023/10/27 02:49:26;;;;;;;;;;;20.20;95.20;;;;;;5111549;28;19959;-73
2023/10/27 02:51:52;;;;;;;;;;;20.80;93.70;;;;;;5114414;28;19907;-72
2023/10/27 02:54:19;;;;;;;;;;;21.00;92.70;;;;;;5113226;28;19912;-72
2023/10/27 02:56:46;;;;;;;;;;;21.80;91.60;;;;;;5096079;28;19912;-73
2023/10/27 02:59:12;;;;;;;;;;;23.00;90.00;;;;;;5100326;28;19915;-72
2023/10/27 03:01:39;;;;;;;;;;;24.60;85.20;;;;;;5109988;28;19908;-72
2023/10/27 03:04:05;;;;;;;;;;;26.00;82.80;;;;;;5093237;28;20296;-76
2023/10/27 03:06:32;;;;;;;;;;;26.20;79.20;;;;;;5082376;28;19912;-75
2023/10/27 03:08:59;;;;;;;;;;;25.80;80.20;;;;;;5096504;28;19968;-73
2023/10/27 03:11:25;;;;;;;;;;;24.50;84.50;;;;;;5103162;28;19960;-74
2023/10/27 03:13:52;;;;;;;;;;;23.60;86.70;;;;;;5097142;28;19916;-74
2023/10/27 03:16:19;;;;;;;;;;;23.80;88.00;;;;;;5117047;27;19919;-75
2023/10/27 03:18:45;;;;;;;;;;;24.60;84.40;;;;;;5106678;28;19908;-75
2023/10/27 03:21:12;;;;;;;;;;;26.10;80.90;;;;;;5107020;28;19947;-74
2023/10/27 03:23:38;;;;;;;;;;;27.60;77.00;;;;;;5109225;28;19933;-73
2023/10/27 03:26:05;;;;;;;;;;;28.20;73.10;;;;;;5113475;28;19953;-75
2023/10/27 03:28:32;;;;;;;;;;;28.70;72.90;;;;;;5113463;28;19922;-75
2023/10/27 03:30:59;;;;;;;;;;;29.20;70.90;;;;;;5099518;27;19907;-74
2023/10/27 03:33:25;;;;;;;;;;;29.50;69.90;;;;;;5119826;27;20342;-74
2023/10/27 03:35:52;;;;;;;;;;;30.10;69.30;;;;;;5113315;28;19911;-73
2023/10/27 03:38:19;;;;;;;;;;;29.90;69.50;;;;;;5094599;28;19961;-75
2023/10/27 03:40:47;;;;;;;;;;;30.10;68.70;;;;;;5109948;28;20352;-73
2023/10/27 03:43:14;;;;;;;;;;;30.40;67.60;;;;;;5109671;28;19923;-73
2023/10/27 03:45:41;;;;;;;;;;;30.20;68.40;;;;;;5112343;28;19914;-74
2023/10/27 03:48:08;;;;;;;;;;;30.90;68.20;;;;;;5105548;28;19920;-73
2023/10/27 03:50:35;;;;;;;;;;;31.10;66.10;;;;;;5109136;28;19908;-73
2023/10/27 03:53:04;;;;;;;;;;;30.20;65.60;;;;;;5112044;28;20275;-73
2023/10/27 03:55:30;;;;;;;;;;;29.80;65.20;;;;;;5112640;28;19953;-74
2023/10/27 03:58:12;;;;;;;;;;;30.10;63.10;;;;;;5106672;28;19916;-71
2023/10/27 04:00:38;;;;;;;;;;;30.20;64.20;;;;;;5106753;28;19907;-72
2023/10/27 04:03:05;;;;;;;;;;;30.40;62.10;;;;;;5109215;28;19916;-73
2023/10/27 04:05:31;;;;;;;;;;;29.90;62.70;;;;;;5075630;28;19908;-75
2023/10/27 04:07:58;;;;;;;;;;;29.80;65.50;;;;;;5088687;28;19920;-75
2023/10/27 04:10:25;;;;;;;;;;;30.50;64.40;;;;;;5109167;28;19911;-75
2023/10/27 04:12:52;;;;;;;;;;;31.00;63.70;;;;;;5112209;28;19919;-75
2023/10/27 04:15:19;;;;;;;;;;;30.90;63.60;;;;;;5112634;28;20357;-73
2023/10/27 04:17:45;;;;;;;;;;;30.60;65.60;;;;;;5112612;28;20348;-75
2023/10/27 04:20:12;;;;;;;;;;;30.20;65.70;;;;;;5112315;28;19908;-76
2023/10/27 04:22:42;;;;;;;;;;;28.70;68.30;;;;;;5111837;28;19954;-75
2023/10/27 04:25:10;;;;;;;;;;;26.20;72.90;;;;;;5112398;28;20019;-75
2023/10/27 04:27:37;;;;;;;;;;;24.40;77.20;;;;;;5113138;28;20728;-74
2023/10/27 04:30:07;;;;;;;;;;;23.30;89.60;;;;;;5112829;28;19916;-75
2023/10/27 04:32:38;;;;;;;;;;;22.30;92.40;;;;;;5105050;28;19916;-73
2023/10/27 04:35:04;;;;;;;;;;;21.40;96.00;;;;;;5113463;28;20349;-79
2023/10/27 04:37:32;;;;;;;;;;;20.50;98.20;;;;;;5098897;28;19959;-74
2023/10/27 04:39:59;;;;;;;;;;;19.80;99.90;;;;;;5101086;28;19931;-76
2023/10/27 04:42:26;;;;;;;;;;;19.50;99.90;;;;;;5092412;28;19908;-74
2023/10/27 04:44:53;;;;;;;;;;;19.30;99.90;;;;;;5096098;28;19935;-76
2023/10/27 04:47:19;;;;;;;;;;;19.30;99.90;;;;;;5107507;28;19908;-73
2023/10/27 04:49:46;;;;;;;;;;;19.20;99.90;;;;;;5093181;28;19943;-79
2023/10/27 04:52:13;;;;;;;;;;;19.30;99.90;;;;;;5092493;28;19915;-76
2023/10/27 04:54:40;;;;;;;;;;;19.90;99.90;;;;;;5096795;28;19912;-75
2023/10/27 04:57:06;;;;;;;;;;;20.70;99.90;;;;;;5081164;28;19966;-77
2023/10/27 04:59:33;;;;;;;;;;;21.10;99.90;;;;;;5078686;28;20349;-75
2023/10/27 05:02:00;;;;;;;;;;;21.30;99.70;;;;;;5096218;28;19924;-76
2023/10/27 05:04:26;;;;;;;;;;;21.50;99.30;;;;;;5095495;28;19943;-77
2023/10/27 05:06:53;;;;;;;;;;;21.60;99.00;;;;;;5095626;28;19954;-76
2023/10/27 05:09:20;;;;;;;;;;;21.50;97.80;;;;;;5077519;28;19916;-78
2023/10/27 05:11:47;;;;;;;;;;;21.80;97.80;;;;;;5096572;28;19956;-75
2023/10/27 05:14:14;;;;;;;;;;;23.30;94.60;;;;;;5096821;28;19932;-75
2023/10/27 05:16:41;;;;;;;;;;;24.90;91.60;;;;;;5078968;28;19908;-74
2023/10/27 05:19:07;;;;;;;;;;;26.40;88.50;;;;;;5096895;28;20348;-75
2023/10/27 05:21:34;;;;;;;;;;;27.30;82.10;;;;;;5096939;28;19923;-76
2023/10/27 05:24:01;;;;;;;;;;;28.00;79.80;;;;;;5096566;28;19908;-74
2023/10/27 05:26:28;;;;;;;;;;;28.50;78.70;;;;;;5096360;28;19912;-75
2023/10/27 05:28:54;;;;;;;;;;;29.40;77.80;;;;;;5096444;28;20315;-74
2023/10/27 05:31:21;;;;;;;;;;;29.80;73.60;;;;;;5096556;28;19961;-73
2023/10/27 05:33:48;;;;;;;;;;;29.30;71.10;;;;;;5096488;28;19916;-75
2023/10/27 05:36:17;;;;;;;;;;;29.00;72.60;;;;;;5096653;28;19916;-76
2023/10/27 05:38:44;;;;;;;;;;;28.10;72.50;;;;;;5096546;28;19912;-75
2023/10/27 05:41:11;;;;;;;;;;;26.80;74.30;;;;;;5097034;28;19908;-76
2023/10/27 05:43:37;;;;;;;;;;;25.50;75.10;;;;;;5096485;28;19908;-74
2023/10/27 05:46:04;;;;;;;;;;;24.40;76.30;;;;;;5096550;28;19935;-76
2023/10/27 05:48:30;;;;;;;;;;;24.10;80.20;;;;;;5096310;28;19935;-75
2023/10/27 05:50:57;;;;;;;;;;;24.30;77.20;;;;;;5096476;28;19916;-75
2023/10/27 05:53:25;;;;;;;;;;;25.50;75.90;;;;;;5096540;28;19912;-76
2023/10/27 05:55:52;;;;;;;;;;;26.90;72.30;;;;;;5096167;28;20376;-75
2023/10/27 05:58:18;;;;;;;;;;;27.30;71.70;;;;;;5096204;28;19908;-76
2023/10/27 06:00:46;;;;;;;;;;;28.10;70.90;;;;;;5095908;28;19908;-74
2023/10/27 06:03:13;;;;;;;;;;;28.90;69.00;;;;;;5095774;28;20258;-73
2023/10/27 06:05:40;;;;;;;;;;;29.50;69.00;;;;;;5077197;28;20249;-75
2023/10/27 06:08:06;;;;;;;;;;;30.00;69.00;;;;;;5095898;28;19939;-75
2023/10/27 06:10:33;;;;;;;;;;;29.50;69.00;;;;;;5095822;28;20003;-74
2023/10/27 06:13:00;;;;;;;;;;;28.20;70.30;;;;;;5096109;28;20265;-76
2023/10/27 06:15:26;;;;;;;;;;;26.70;72.60;;;;;;5096043;28;19943;-73
2023/10/27 06:17:53;;;;;;;;;;;25.40;75.30;;;;;;5095902;28;19957;-75
2023/10/27 06:20:20;;;;;;;;;;;24.00;79.20;;;;;;5095686;28;19912;-75
2023/10/27 06:22:46;;;;;;;;;;;23.00;80.40;;;;;;5095908;28;19908;-73
2023/10/27 06:25:13;;;;;;;;;;;22.10;83.10;;;;;;5095921;28;20414;-76
2023/10/27 06:27:40;;;;;;;;;;;21.90;83.80;;;;;;5077385;28;20380;-75
2023/10/27 06:30:07;;;;;;;;;;;21.90;83.20;;;;;;5095593;28;19916;-77
2023/10/27 06:32:33;;;;;;;;;;;22.20;82.50;;;;;;5095824;28;19961;-75
2023/10/27 06:35:00;;;;;;;;;;;22.70;81.30;;;;;;5095832;28;19919;-76
2023/10/27 06:37:28;;;;;;;;;;;23.40;80.90;;;;;;5095520;28;19954;-75
2023/10/27 06:39:58;;;;;;;;;;;23.80;79.00;;;;;;5095232;28;19912;-76
2023/10/27 06:42:25;;;;;;;;;;;23.60;78.50;;;;;;5095112;28;19933;-75
2023/10/27 06:44:52;;;;;;;;;;;22.70;78.90;;;;;;5095011;28;19908;-74
2023/10/27 06:47:18;;;;;;;;;;;22.00;81.40;;;;;;5095304;28;19998;-79
2023/10/27 06:49:45;;;;;;;;;;;21.30;82.10;;;;;;5076914;28;20411;-75
2023/10/27 06:52:13;;;;;;;;;;;20.80;83.40;;;;;;5094692;28;19908;-77
2023/10/27 06:54:40;;;;;;;;;;;20.30;84.50;;;;;;5076413;28;19919;-76
2023/10/27 06:57:07;;;;;;;;;;;19.90;86.20;;;;;;5094800;28;19908;-77
2023/10/27 06:59:35;;;;;;;;;;;19.60;88.00;;;;;;5094983;28;20284;-74
2023/10/27 07:02:03;;;;;;;;;;;19.30;88.20;;;;;;5095001;28;20315;-75
2023/10/27 07:04:30;;;;;;;;;;;19.10;90.30;;;;;;5094877;28;19955;-75
2023/10/27 07:06:56;;;;;;;;;;;19.20;90.90;;;;;;5076702;28;19908;-73
2023/10/27 07:09:23;;;;;;;;;;;19.20;91.00;;;;;;5094444;28;20287;-73
2023/10/27 07:11:50;;;;;;;;;;;19.30;92.50;;;;;;5094578;28;19908;-75
2023/10/27 07:14:17;;;;;;;;;;;19.20;93.40;;;;;;5094644;28;19908;-74
2023/10/27 07:16:43;;;;;;;;;;;19.00;94.30;;;;;;5093692;28;20307;-74
2023/10/27 07:19:11;;;;;;;;;;;18.80;94.80;;;;;;5095145;28;19909;-74
2023/10/27 07:21:38;;;;;;;;;;;18.70;95.40;;;;;;5094605;28;19912;-75
2023/10/27 07:24:05;;;;;;;;;;;18.60;95.50;;;;;;5094054;28;19916;-78
2023/10/27 07:26:31;;;;;;;;;;;18.40;95.50;;;;;;5094185;28;19934;-73
2023/10/27 07:28:58;;;;;;;;;;;18.20;95.60;;;;;;5075622;28;20326;-73
2023/10/27 07:31:25;;;;;;;;;;;18.00;96.50;;;;;;5093914;28;19908;-75
2023/10/27 07:33:52;;;;;;;;;;;17.90;97.30;;;;;;5094155;28;19908;-74
2023/10/27 07:36:18;;;;;;;;;;;17.90;97.80;;;;;;5076047;28;20377;-73
2023/10/27 07:38:45;;;;;;;;;;;17.70;96.70;;;;;;5094221;28;19939;-74
2023/10/27 07:41:11;;;;;;;;;;;17.60;96.40;;;;;;5093751;28;19908;-74
2023/10/27 07:43:39;;;;;;;;;;;17.50;96.40;;;;;;5093889;28;20418;-72
2023/10/27 07:46:05;;;;;;;;;;;17.40;96.50;;;;;;5093747;28;19908;-75
2023/10/27 07:48:35;;;;;;;;;;;17.40;96.10;;;;;;5093365;28;19927;-76
2023/10/27 07:51:03;;;;;;;;;;;17.40;96.20;;;;;;5093759;28;19908;-73
2023/10/27 07:53:29;;;;;;;;;;;17.30;95.80;;;;;;5093291;28;19908;-74
2023/10/27 07:55:56;;;;;;;;;;;17.30;96.20;;;;;;5093561;28;19908;-74
2023/10/27 07:58:24;;;;;;;;;;;17.20;96.10;;;;;;5093450;28;19934;-74
2023/10/27 08:00:51;;;;;;;;;;;17.10;96.40;;;;;;5105176;28;20372;-73
2023/10/27 08:03:18;;;;;;;;;;;17.00;96.90;;;;;;5093583;28;19998;-72
2023/10/27 08:05:45;;;;;;;;;;;17.10;96.90;;;;;;5095065;28;20281;-72
2023/10/27 08:08:11;;;;;;;;;;;17.00;97.50;;;;;;5112816;28;19919;-73
2023/10/27 08:10:38;;;;;;;;;;;17.00;97.80;;;;;;5113584;28;20280;-74
2023/10/27 08:13:08;;;;;;;;;;;17.00;98.40;;;;;;5113015;28;20476;-72
2023/10/27 08:15:35;;;;;;;;;;;16.90;98.80;;;;;;5113310;28;20052;-73
2023/10/27 08:18:01;;;;;;;;;;;16.80;99.10;;;;;;5112870;28;19922;-76
2023/10/27 08:20:29;;;;;;;;;;;16.80;99.50;;;;;;5113128;28;19952;-74
2023/10/27 08:22:55;;;;;;;;;;;16.80;99.60;;;;;;5112885;28;19992;-76
2023/10/27 08:25:23;;;;;;;;;;;16.80;99.90;;;;;;5095090;28;19904;-74
2023/10/27 08:27:50;;;;;;;;;;;16.80;99.90;;;;;;5112726;28;19908;-75
2023/10/27 08:30:17;;;;;;;;;;;16.80;99.90;;;;;;5113413;28;19935;-75
2023/10/27 08:32:44;;;;;;;;;;;16.80;99.90;;;;;;5113765;28;19908;-74
2023/10/27 08:35:11;;;;;;;;;;;16.90;99.90;;;;;;5112985;28;19908;-75
2023/10/27 08:37:37;;;;;;;;;;;16.90;99.70;;;;;;5113393;28;19919;-74
2023/10/27 08:40:04;;;;;;;;;;;16.90;99.20;;;;;;5113413;28;19915;-75
2023/10/27 08:42:34;;;;;;;;;;;16.80;98.00;;;;;;5114337;28;20336;-74
2023/10/27 08:45:00;;;;;;;;;;;16.80;98.40;;;;;;5113098;28;19912;-74
2023/10/27 08:47:33;;;;;;;;;;;16.80;98.40;;;;;;5113006;28;19908;-75
2023/10/27 08:50:03;;;;;;;;;;;16.90;98.80;;;;;;5112635;28;19924;-74
2023/10/27 08:52:34;;;;;;;;;;;16.80;99.50;;;;;;5111947;28;20303;-75
2023/10/27 08:55:07;;;;;;;;;;;16.80;99.80;;;;;;5112712;28;19990;-74
2023/10/27 08:57:34;;;;;;;;;;;16.80;99.70;;;;;;5113035;28;19929;-75
2023/10/27 09:00:01;;;;;;;;;;;16.80;99.70;;;;;;5112592;28;20386;-74
2023/10/27 09:02:29;;;;;;;;;;;16.80;99.90;;;;;;5112791;28;19915;-76
2023/10/27 09:05:03;;;;;;;;;;;16.60;99.90;;;;;;5112804;28;19908;-74
2023/10/27 09:07:30;;;;;;;;;;;16.60;99.70;;;;;;5113113;28;20318;-75
2023/10/27 09:09:58;;;;;;;;;;;16.60;99.90;;;;;;5112336;28;19968;-73
2023/10/27 09:12:26;;;;;;;;;;;16.50;99.90;;;;;;5112889;28;19911;-75
2023/10/27 09:14:59;;;;;;;;;;;16.50;99.90;;;;;;5112571;28;19914;-77
2023/10/27 09:17:29;;;;;;;;;;;16.50;99.90;;;;;;5112640;28;19998;-76
2023/10/27 09:20:05;;;;;;;;;;;16.40;99.90;;;;;;5112212;28;19908;-74
2023/10/27 09:22:32;;;;;;;;;;;16.40;99.90;;;;;;5112666;28;19908;-75
2023/10/27 09:25:17;;;;;;;;;;;16.30;99.90;;;;;;5112797;28;20356;-77
2023/10/27 09:27:46;;;;;;;;;;;16.40;99.90;;;;;;5112848;28;19911;-73
2023/10/27 09:30:14;;;;;;;;;;;16.20;99.90;;;;;;5112730;28;20292;-74
2023/10/27 09:32:43;;;;;;;;;;;16.20;99.90;;;;;;5112686;28;19908;-75
2023/10/27 09:35:17;;;;;;;;;;;16.20;99.90;;;;;;5112933;28;19915;-73
2023/10/27 09:37:46;;;;;;;;;;;16.20;99.90;;;;;;5112547;28;20025;-76
2023/10/27 09:40:15;;;;;;;;;;;16.10;99.90;;;;;;5113597;28;19908;-76
2023/10/27 09:42:43;;;;;;;;;;;16.00;99.90;;;;;;5117427;28;19915;-75
2023/10/27 09:45:17;;;;;;;;;;;16.00;99.90;;;;;;5116495;28;19998;-75
2023/10/27 09:47:47;;;;;;;;;;;16.00;99.90;;;;;;5116812;28;19990;-75
2023/10/27 09:50:33;;;;;;;;;;;16.00;99.90;;;;;;5097690;28;19919;-74
2023/10/27 09:53:01;;;;;;;;;;;16.00;99.90;;;;;;5117093;28;19998;-75
2023/10/27 09:55:28;;;;;;;;;;;16.00;99.90;;;;;;5116289;28;19996;-75
2023/10/27 09:57:55;;;;;;;;;;;15.90;99.90;;;;;;5115773;28;19911;-74
2023/10/27 10:00:26;;;;;;;;;;;15.90;99.90;;;;;;5097081;28;19908;-73
2023/10/27 10:02:53;;;;;;;;;;;15.90;99.90;;;;;;5115826;28;19915;-75
2023/10/27 10:05:20;;;;;;;;;;;15.90;99.90;;;;;;5116094;28;19908;-75
2023/10/27 10:07:55;;;;;;;;;;;15.90;99.90;;;;;;5116274;28;20006;-74
2023/10/27 10:10:23;;;;;;;;;;;16.00;99.90;;;;;;5115508;28;19962;-75
2023/10/27 10:13:03;;;;;;;;;;;16.00;99.90;;;;;;5112283;28;19963;-73
2023/10/27 10:15:33;;;;;;;;;;;16.00;99.90;;;;;;5114516;28;19908;-73
2023/10/27 10:18:01;;;;;;;;;;;15.90;99.90;;;;;;5115335;28;19915;-73
2023/10/27 10:20:47;;;;;;;;;;;15.90;99.90;;;;;;5115244;28;19912;-75
2023/10/27 10:23:14;;;;;;;;;;;15.90;99.90;;;;;;5114362;28;20006;-74
2023/10/27 10:25:55;;;;;;;;;;;15.80;99.90;;;;;;5115140;28;19933;-75
2023/10/27 10:28:22;;;;;;;;;;;15.80;99.90;;;;;;5115610;28;19923;-73
2023/10/27 10:31:13;;;;;;;;;;;15.80;99.90;;;;;;5115254;28;20006;-75
2023/10/27 10:33:40;;;;;;;;;;;15.80;99.90;;;;;;5096565;28;19989;-73
2023/10/27 10:36:14;;;;;;;;;;;15.80;99.90;;;;;;5115058;28;20279;-73
2023/10/27 10:38:44;;;;;;;;;;;15.70;99.90;;;;;;5115233;28;19908;-73
2023/10/27 10:41:11;;;;;;;;;;;15.80;99.90;;;;;;5115143;28;20280;-74
2023/10/27 10:43:38;;;;;;;;;;;15.80;99.90;;;;;;5114942;28;19915;-75
2023/10/27 10:46:05;;;;;;;;;;;15.90;99.90;;;;;;5096411;28;20325;-73
2023/10/27 10:48:33;;;;;;;;;;;15.90;99.90;;;;;;5114873;28;19924;-73
2023/10/27 10:51:15;;;;;;;;;;;15.80;99.90;;;;;;5115021;28;19947;-73
2023/10/27 10:53:43;;;;;;;;;;;15.80;99.90;;;;;;5096541;28;19908;-74
2023/10/27 10:56:10;;;;;;;;;;;15.70;99.90;;;;;;5114608;28;19943;-75
2023/10/27 10:58:37;;;;;;;;;;;15.80;99.90;;;;;;5115075;28;20360;-78
2023/10/27 11:01:04;;;;;;;;;;;15.70;99.90;;;;;;5114768;28;19915;-76
2023/10/27 11:03:33;;;;;;;;;;;15.70;99.90;;;;;;5114706;28;19912;-75
2023/10/27 11:06:01;;;;;;;;;;;15.60;99.90;;;;;;5114738;28;20345;-75
2023/10/27 11:08:29;;;;;;;;;;;15.70;99.90;;;;;;5114460;28;19957;-73
2023/10/27 11:11:04;;;;;;;;;;;15.70;99.90;;;;;;5114620;28;19930;-74
2023/10/27 11:13:33;;;;;;;;;;;15.80;99.90;;;;;;5113656;28;19908;-76
2023/10/27 11:16:00;;;;;;;;;;;15.80;99.90;;;;;;5114037;28;19908;-75
2023/10/27 11:18:28;;;;;;;;;;;15.80;99.90;;;;;;5114373;28;19908;-74
2023/10/27 11:20:55;;;;;;;;;;;15.90;99.90;;;;;;5114373;28;19916;-74
2023/10/27 11:23:26;;;;;;;;;;;15.90;99.90;;;;;;5113949;28;19908;-75
2023/10/27 11:26:00;;;;;;;;;;;16.00;99.90;;;;;;5114191;28;19907;-73
2023/10/27 11:28:28;;;;;;;;;;;16.00;99.90;;;;;;5113741;28;20450;-73
2023/10/27 11:31:02;;;;;;;;;;;16.00;99.90;;;;;;5113953;28;20002;-74
2023/10/27 11:33:29;;;;;;;;;;;16.00;99.70;;;;;;5113794;28;20360;-74
2023/10/27 11:35:59;;;;;;;;;;;16.00;99.00;;;;;;5114173;28;19943;-76
2023/10/27 11:38:32;;;;;;;;;;;16.10;99.90;;;;;;5114243;28;19914;-77
2023/10/27 11:41:12;;;;;;;;;;;16.00;99.90;;;;;;5113675;28;19912;-75
2023/10/27 11:43:40;;;;;;;;;;;16.00;99.90;;;;;;5113553;28;20026;-74
2023/10/27 11:46:17;;;;;;;;;;;16.00;99.90;;;;;;5095511;28;19994;-74
2023/10/27 11:48:44;;;;;;;;;;;15.90;99.90;;;;;;5113389;28;19946;-76
2023/10/27 11:51:11;;;;;;;;;;;15.70;99.90;;;;;;5113738;28;19943;-75
2023/10/27 11:53:45;;;;;;;;;;;15.70;99.90;;;;;;5113452;28;20418;-75
2023/10/27 11:56:12;;;;;;;;;;;15.60;99.90;;;;;;5113182;28;20364;-75
2023/10/27 11:58:41;;;;;;;;;;;15.60;99.90;;;;;;5113372;28;19995;-75
2023/10/27 12:01:08;;;;;;;;;;;15.60;99.90;;;;;;5113404;28;20337;-76
2023/10/27 12:03:35;;;;;;;;;;;15.50;99.90;;;;;;5094096;28;19953;-74
2023/10/27 12:06:02;;;;;;;;;;;15.50;99.90;;;;;;5113470;28;19914;-77
2023/10/27 12:08:29;;;;;;;;;;;15.50;99.90;;;;;;5113639;28;20414;-76
2023/10/27 12:10:56;;;;;;;;;;;15.40;99.90;;;;;;5113549;28;19969;-74
2023/10/27 12:13:25;;;;;;;;;;;15.40;99.90;;;;;;5112940;28;19907;-75
2023/10/27 12:15:51;;;;;;;;;;;15.30;99.90;;;;;;5113297;28;20280;-75
2023/10/27 12:18:21;;;;;;;;;;;15.20;99.90;;;;;;5113138;28;20662;-74
2023/10/27 12:20:49;;;;;;;;;;;15.20;99.90;;;;;;5113397;28;19908;-77
2023/10/27 12:23:18;;;;;;;;;;;15.10;99.90;;;;;;5112921;28;19912;-74
2023/10/27 12:25:44;;;;;;;;;;;15.10;99.90;;;;;;5113198;28;19908;-76
2023/10/27 12:28:12;;;;;;;;;;;15.00;99.90;;;;;;5112728;28;19912;-74
2023/10/27 12:30:39;;;;;;;;;;;15.10;99.90;;;;;;5112784;28;19908;-76
2023/10/27 12:33:09;;;;;;;;;;;15.10;99.90;;;;;;5112785;28;20271;-74
2023/10/27 12:35:37;;;;;;;;;;;15.00;99.90;;;;;;5112117;28;19919;-74
2023/10/27 12:38:04;;;;;;;;;;;15.00;99.90;;;;;;5109027;28;19912;-74
2023/10/27 12:40:34;;;;;;;;;;;14.90;99.90;;;;;;5113304;28;19947;-74
2023/10/27 12:43:01;;;;;;;;;;;14.90;99.90;;;;;;5112917;28;20364;-74
2023/10/27 12:45:28;;;;;;;;;;;14.70;99.90;;;;;;5113005;28;19931;-76
2023/10/27 12:47:55;;;;;;;;;;;14.70;99.90;;;;;;5113153;28;19919;-76
2023/10/27 12:50:22;;;;;;;;;;;14.70;99.90;;;;;;5113019;28;19915;-74
2023/10/27 12:52:49;;;;;;;;;;;14.70;99.90;;;;;;5112797;28;19911;-74
2023/10/27 12:55:15;;;;;;;;;;;14.70;99.90;;;;;;5112971;28;20360;-74
2023/10/27 12:57:42;;;;;;;;;;;14.70;99.90;;;;;;5113193;28;19915;-75
2023/10/27 13:00:16;;;;;;;;;;;14.80;99.80;;;;;;5113001;28;19949;-74
2023/10/27 13:02:44;;;;;;;;;;;14.90;99.40;;;;;;5112172;28;20617;-74
2023/10/27 13:05:12;;;;;;;;;;;15.00;98.90;;;;;;5112970;28;20388;-75
2023/10/27 13:07:40;;;;;;;;;;;15.20;98.00;;;;;;5112990;28;19907;-75
2023/10/27 13:10:07;;;;;;;;;;;15.20;97.10;;;;;;5113013;28;19961;-74
2023/10/27 13:12:34;;;;;;;;;;;15.30;96.50;;;;;;5112761;28;19912;-75
2023/10/27 13:15:01;;;;;;;;;;;15.30;95.80;;;;;;5113660;28;19908;-77
2023/10/27 13:17:28;;;;;;;;;;;15.40;95.20;;;;;;5117087;28;19922;-76
2023/10/27 13:19:55;;;;;;;;;;;15.50;95.00;;;;;;5116995;28;19935;-75
2023/10/27 13:22:26;;;;;;;;;;;15.60;98.20;;;;;;5098513;28;20296;-75
2023/10/27 13:24:55;;;;;;;;;;;15.60;99.90;;;;;;5116665;28;19915;-78
2023/10/27 13:27:22;;;;;;;;;;;15.50;99.90;;;;;;5116775;28;19907;-74
2023/10/27 13:29:49;;;;;;;;;;;15.40;99.90;;;;;;5116649;28;20010;-77
2023/10/27 13:32:16;;;;;;;;;;;15.20;99.90;;;;;;5116763;28;19915;-76
2023/10/27 13:34:42;;;;;;;;;;;15.00;99.90;;;;;;5098164;28;19908;-75
2023/10/27 13:37:10;;;;;;;;;;;15.00;99.90;;;;;;5116605;28;19907;-75
2023/10/27 13:39:37;;;;;;;;;;;14.80;99.90;;;;;;5116300;28;20257;-74
2023/10/27 13:42:04;;;;;;;;;;;14.70;99.90;;;;;;5116904;28;20402;-75
2023/10/27 13:44:30;;;;;;;;;;;14.70;99.90;;;;;;5116631;28;19923;-75
2023/10/27 13:46:57;;;;;;;;;;;14.70;99.90;;;;;;5116308;28;19908;-76
2023/10/27 13:49:24;;;;;;;;;;;14.70;99.90;;;;;;5115726;28;19926;-75
2023/10/27 13:51:50;;;;;;;;;;;14.70;99.90;;;;;;5116212;28;19953;-74
2023/10/27 13:54:17;;;;;;;;;;;14.80;99.90;;;;;;5116101;28;19961;-75
2023/10/27 13:56:43;;;;;;;;;;;14.80;99.90;;;;;;5116326;28;19911;-74
2023/10/27 13:59:10;;;;;;;;;;;14.90;99.90;;;;;;5115553;28;20368;-75
2023/10/27 14:01:38;;;;;;;;;;;14.70;99.90;;;;;;5116335;28;19912;-74
2023/10/27 14:04:06;;;;;;;;;;;14.80;99.90;;;;;;5116259;28;19908;-75
2023/10/27 14:06:38;;;;;;;;;;;14.80;99.90;;;;;;5115998;28;19908;-76
2023/10/27 14:09:05;;;;;;;;;;;14.80;99.90;;;;;;5116284;28;19920;-74
2023/10/27 14:11:31;;;;;;;;;;;14.70;99.90;;;;;;5116037;28;19908;-75
2023/10/27 14:13:58;;;;;;;;;;;14.70;99.90;;;;;;5115824;28;20352;-75
2023/10/27 14:16:25;;;;;;;;;;;14.70;99.90;;;;;;5116099;28;19919;-75
2023/10/27 14:18:52;;;;;;;;;;;14.70;99.90;;;;;;5116047;28;19908;-75